createdAt,value
2018-07-28T00:01:56.406Z,22.10
2018-07-28T00:04:24.614Z,22.10
2018-07-28T00:06:52.811Z,22.10
2018-07-28T00:09:21.029Z,22.10
2018-07-28T00:11:49.308Z,22.20
2018-07-28T00:14:17.522Z,22.20
2018-07-28T00:16:45.715Z,22.00
2018-07-28T00:19:13.934Z,21.90
2018-07-28T00:21:42.134Z,21.80
2018-07-28T00:24:10.334Z,22.00
2018-07-28T00:26:38.544Z,21.80
2018-07-28T00:29:06.747Z,21.70
2018-07-28T00:31:34.945Z,21.70
2018-07-28T00:34:03.194Z,21.80
2018-07-28T00:36:31.406Z,21.60
2018-07-28T00:38:59.623Z,21.50
2018-07-28T00:41:27.839Z,21.50
2018-07-28T00:43:56.045Z,21.50
2018-07-28T00:46:24.270Z,21.40
2018-07-28T00:48:52.478Z,21.40
2018-07-28T00:51:20.712Z,21.50
2018-07-28T00:53:48.907Z,21.60
2018-07-28T00:56:17.116Z,21.50
2018-07-28T00:58:45.318Z,21.50
2018-07-28T01:01:13.534Z,21.50
2018-07-28T01:03:41.778Z,21.40
2018-07-28T01:06:09.987Z,21.40
2018-07-28T01:08:38.175Z,21.40
2018-07-28T01:11:06.425Z,21.40
2018-07-28T01:13:34.631Z,21.30
2018-07-28T01:16:02.833Z,21.30
2018-07-28T01:18:31.034Z,21.20
2018-07-28T01:20:59.264Z,21.20
2018-07-28T01:23:27.474Z,21.20
2018-07-28T01:25:55.682Z,21.30
2018-07-28T01:28:23.883Z,21.20
2018-07-28T01:30:52.113Z,21.20
2018-07-28T01:33:20.339Z,21.20
2018-07-28T01:35:48.574Z,21.20
2018-07-28T01:38:16.823Z,21.20
2018-07-28T01:40:45.031Z,21.20
2018-07-28T01:43:13.241Z,21.20
2018-07-28T01:45:41.453Z,21.20
2018-07-28T01:48:09.662Z,21.20
2018-07-28T01:50:37.873Z,21.20
2018-07-28T01:53:06.321Z,21.10
2018-07-28T01:55:34.519Z,21.10
2018-07-28T01:58:02.755Z,21.10
2018-07-28T02:00:30.947Z,21.20
2018-07-28T02:02:59.168Z,21.10
2018-07-28T02:05:27.394Z,21.10
2018-07-28T02:07:55.610Z,21.00
2018-07-28T02:10:23.814Z,21.00
2018-07-28T02:12:52.069Z,20.90
2018-07-28T02:15:20.260Z,20.90
2018-07-28T02:17:48.473Z,20.90
2018-07-28T02:20:16.701Z,21.00
2018-07-28T02:22:44.909Z,20.90
2018-07-28T02:25:13.127Z,20.70
2018-07-28T02:27:41.357Z,20.70
2018-07-28T02:30:09.555Z,20.60
2018-07-28T02:32:37.762Z,20.70
2018-07-28T02:35:06.506Z,20.70
2018-07-28T02:37:34.723Z,20.70
2018-07-28T02:40:02.943Z,20.60
2018-07-28T02:42:31.159Z,20.60
2018-07-28T02:44:59.366Z,20.50
2018-07-28T02:47:27.579Z,20.50
2018-07-28T02:49:55.792Z,20.50
2018-07-28T02:52:23.987Z,20.50
2018-07-28T02:54:52.198Z,20.40
2018-07-28T02:57:20.399Z,20.40
2018-07-28T02:59:48.615Z,20.40
2018-07-28T03:02:16.825Z,20.50
2018-07-28T03:04:45.063Z,20.50
2018-07-28T03:07:13.285Z,20.60
2018-07-28T03:09:41.494Z,20.80
2018-07-28T03:12:09.702Z,20.80
2018-07-28T03:14:37.911Z,21.00
2018-07-28T03:17:06.156Z,21.10
2018-07-28T03:19:34.386Z,21.20
2018-07-28T03:22:02.606Z,21.20
2018-07-28T03:24:30.825Z,21.10
2018-07-28T03:26:59.018Z,21.10
2018-07-28T03:29:27.247Z,21.10
2018-07-28T03:31:55.470Z,21.30
2018-07-28T03:34:23.683Z,21.40
2018-07-28T03:36:51.877Z,21.60
2018-07-28T03:39:20.083Z,21.80
2018-07-28T03:41:48.290Z,21.90
2018-07-28T03:44:16.504Z,22.00
2018-07-28T03:46:44.701Z,22.10
2018-07-28T03:49:12.931Z,22.20
2018-07-28T03:51:41.152Z,22.20
2018-07-28T03:54:09.366Z,22.10
2018-07-28T03:56:37.831Z,22.20
2018-07-28T03:59:06.206Z,22.10
2018-07-28T04:01:34.449Z,22.10
2018-07-28T04:04:02.940Z,22.20
2018-07-28T04:06:31.106Z,22.30
2018-07-28T04:08:59.372Z,22.30
2018-07-28T04:11:27.558Z,22.30
2018-07-28T04:13:55.757Z,22.20
2018-07-28T04:16:23.977Z,22.30
2018-07-28T04:18:52.230Z,22.40
2018-07-28T04:21:20.513Z,22.30
2018-07-28T04:23:48.706Z,22.30
2018-07-28T04:26:16.923Z,22.30
2018-07-28T04:28:45.134Z,22.30
2018-07-28T04:31:13.335Z,22.30
2018-07-28T04:33:41.825Z,22.30
2018-07-28T04:36:10.038Z,22.30
2018-07-28T04:38:38.225Z,22.50
2018-07-28T04:41:06.434Z,22.60
2018-07-28T04:43:34.647Z,22.80
2018-07-28T04:46:02.880Z,22.90
2018-07-28T04:48:31.080Z,22.90
2018-07-28T04:51:05.585Z,22.90
2018-07-28T04:53:36.136Z,23.00
2018-07-28T04:56:04.686Z,23.00
2018-07-28T04:58:32.930Z,23.00
2018-07-28T05:01:01.154Z,22.90
2018-07-28T05:03:29.343Z,22.90
2018-07-28T05:05:57.573Z,22.90
2018-07-28T05:08:25.803Z,22.80
2018-07-28T05:10:54.010Z,22.80
2018-07-28T05:13:28.526Z,22.80
2018-07-28T05:15:56.926Z,22.80
2018-07-28T05:18:25.135Z,22.80
2018-07-28T05:20:53.337Z,22.70
2018-07-28T05:23:21.543Z,22.70
2018-07-28T05:25:49.762Z,22.70
2018-07-28T05:28:17.962Z,22.80
2018-07-28T05:30:46.175Z,22.80
2018-07-28T05:33:14.394Z,22.90
2018-07-28T05:35:42.618Z,22.80
2018-07-28T05:38:10.826Z,22.80
2018-07-28T05:40:39.045Z,22.70
2018-07-28T05:43:07.361Z,22.80
2018-07-28T05:45:35.571Z,22.70
2018-07-28T05:48:03.791Z,22.70
2018-07-28T05:50:31.993Z,22.80
2018-07-28T05:53:00.201Z,22.70
2018-07-28T05:55:28.396Z,22.70
2018-07-28T05:57:56.585Z,22.70
2018-07-28T06:00:24.799Z,22.90
2018-07-28T06:02:53.084Z,22.80
2018-07-28T06:05:21.213Z,22.80
2018-07-28T06:07:49.452Z,22.70
2018-07-28T06:10:17.704Z,22.60
2018-07-28T06:12:45.910Z,22.60
2018-07-28T06:15:14.121Z,22.60
2018-07-28T06:17:42.322Z,22.50
2018-07-28T06:20:10.570Z,22.50
2018-07-28T06:22:38.750Z,22.50
2018-07-28T06:25:07.641Z,22.40
2018-07-28T06:27:35.867Z,22.30
2018-07-28T06:30:04.738Z,22.30
2018-07-28T06:32:32.962Z,22.40
2018-07-28T06:35:01.182Z,22.40
2018-07-28T06:37:29.409Z,22.30
2018-07-28T06:39:57.611Z,22.00
2018-07-28T06:42:25.817Z,21.90
2018-07-28T06:44:54.017Z,21.70
2018-07-28T06:47:22.266Z,21.60
2018-07-28T06:49:50.475Z,21.50
2018-07-28T06:52:18.691Z,21.20
2018-07-28T06:54:46.896Z,21.10
2018-07-28T06:57:15.101Z,21.00
2018-07-28T06:59:43.294Z,21.00
2018-07-28T07:02:11.514Z,21.10
2018-07-28T07:04:39.725Z,21.20
2018-07-28T07:07:07.950Z,21.30
2018-07-28T07:09:36.162Z,21.20
2018-07-28T07:12:04.421Z,21.20
2018-07-28T07:14:32.614Z,21.10
2018-07-28T07:17:00.848Z,21.20
2018-07-28T07:19:29.047Z,21.20
2018-07-28T07:21:57.255Z,21.30
2018-07-28T07:24:25.470Z,21.30
2018-07-28T07:26:53.677Z,21.40
2018-07-28T07:29:21.877Z,21.50
2018-07-28T07:31:50.090Z,21.50
2018-07-28T07:34:18.310Z,21.50
2018-07-28T07:36:46.510Z,21.40
2018-07-28T07:39:14.731Z,21.40
2018-07-28T07:41:42.953Z,21.50
2018-07-28T07:44:11.157Z,21.50
2018-07-28T07:46:39.441Z,21.50
2018-07-28T07:49:07.694Z,21.60
2018-07-28T07:51:35.907Z,21.80
2018-07-28T07:54:04.124Z,21.80
2018-07-28T07:56:32.315Z,21.70
2018-07-28T07:59:00.539Z,21.70
2018-07-28T08:01:28.863Z,21.80
2018-07-28T08:03:57.129Z,21.90
2018-07-28T08:06:25.355Z,22.00
2018-07-28T08:08:53.563Z,22.20
2018-07-28T08:11:22.942Z,22.40
2018-07-28T08:13:51.154Z,22.60
2018-07-28T08:16:19.347Z,22.70
2018-07-28T08:18:47.548Z,23.00
2018-07-28T08:21:15.758Z,23.20
2018-07-28T08:23:43.999Z,23.40
2018-07-28T08:26:12.196Z,23.50
2018-07-28T08:28:40.385Z,23.60
2018-07-28T08:31:08.599Z,23.70
2018-07-28T08:33:36.805Z,23.90
2018-07-28T08:36:05.069Z,24.00
2018-07-28T08:38:33.267Z,24.40
2018-07-28T08:41:01.473Z,24.70
2018-07-28T08:43:29.658Z,25.00
2018-07-28T08:45:57.871Z,25.80
2018-07-28T08:48:26.088Z,26.30
2018-07-28T08:50:54.300Z,26.80
2018-07-28T08:53:22.500Z,27.20
2018-07-28T08:55:50.762Z,27.30
2018-07-28T08:58:18.982Z,27.20
2018-07-28T09:00:47.200Z,27.10
2018-07-28T09:03:15.402Z,27.50
2018-07-28T09:05:43.632Z,27.80
2018-07-28T09:08:13.429Z,28.10
2018-07-28T09:10:41.706Z,28.70
2018-07-28T09:13:09.908Z,29.40
2018-07-28T09:15:38.131Z,30.00
2018-07-28T09:18:06.361Z,30.30
2018-07-28T09:20:34.596Z,30.80
2018-07-28T09:23:02.795Z,31.00
2018-07-28T09:25:31.002Z,30.90
2018-07-28T09:27:59.205Z,30.90
2018-07-28T09:30:27.441Z,30.30
2018-07-28T09:32:55.654Z,30.00
2018-07-28T09:35:23.876Z,29.60
2018-07-28T09:37:52.075Z,29.40
2018-07-28T09:40:20.294Z,29.10
2018-07-28T09:42:48.492Z,28.90
2018-07-28T09:45:16.708Z,28.80
2018-07-28T09:47:44.944Z,28.80
2018-07-28T09:50:13.160Z,28.70
2018-07-28T09:52:41.373Z,28.60
2018-07-28T09:55:09.598Z,28.40
2018-07-28T09:57:37.797Z,28.40
2018-07-28T10:00:06.092Z,28.30
2018-07-28T10:02:34.334Z,28.40
2018-07-28T10:05:02.542Z,28.40
2018-07-28T10:07:30.748Z,28.40
2018-07-28T10:09:58.961Z,28.20
2018-07-28T10:12:27.178Z,28.20
2018-07-28T10:14:55.922Z,28.10
2018-07-28T10:17:24.598Z,27.90
2018-07-28T10:19:52.838Z,27.80
2018-07-28T10:22:21.077Z,27.70
2018-07-28T10:24:49.262Z,27.70
2018-07-28T10:27:17.490Z,27.70
2018-07-28T10:29:45.717Z,27.70
2018-07-28T10:32:13.927Z,27.80
2018-07-28T10:34:42.127Z,27.80
2018-07-28T10:37:10.341Z,27.90
2018-07-28T10:39:38.539Z,28.10
2018-07-28T10:42:06.859Z,28.50
2018-07-28T10:44:35.069Z,28.70
2018-07-28T10:47:03.355Z,29.20
2018-07-28T10:49:31.567Z,29.60
2018-07-28T10:51:59.807Z,29.70
2018-07-28T10:54:28.007Z,29.60
2018-07-28T10:56:56.205Z,29.40
2018-07-28T10:59:24.424Z,29.40
2018-07-28T11:01:52.690Z,29.10
2018-07-28T11:04:20.930Z,28.90
2018-07-28T11:06:49.144Z,28.70
2018-07-28T11:09:17.341Z,28.60
2018-07-28T11:11:45.621Z,28.40
2018-07-28T11:14:13.839Z,28.30
2018-07-28T11:16:42.076Z,28.20
2018-07-28T11:19:10.278Z,28.00
2018-07-28T11:21:38.490Z,27.90
2018-07-28T11:24:06.863Z,27.90
2018-07-28T11:26:35.074Z,28.20
2018-07-28T11:29:03.288Z,28.40
2018-07-28T11:31:42.727Z,28.40
2018-07-28T11:34:22.303Z,28.30
2018-07-28T11:37:01.784Z,28.20
2018-07-28T11:39:41.344Z,28.10
2018-07-28T11:42:20.930Z,28.10
2018-07-28T11:44:57.639Z,28.30
2018-07-28T11:47:25.859Z,28.40
2018-07-28T11:49:54.072Z,28.30
2018-07-28T11:52:22.265Z,28.30
2018-07-28T11:54:50.714Z,28.30
2018-07-28T11:57:18.934Z,28.20
2018-07-28T11:59:47.145Z,27.90
2018-07-28T12:02:15.355Z,27.70
2018-07-28T12:04:43.584Z,27.40
2018-07-28T12:07:11.791Z,27.40
2018-07-28T12:09:39.993Z,27.20
2018-07-28T12:12:08.197Z,27.20
2018-07-28T12:14:36.416Z,27.20
2018-07-28T12:17:04.620Z,27.10
2018-07-28T12:19:32.833Z,27.20
2018-07-28T12:22:01.039Z,27.20
2018-07-28T12:24:29.259Z,27.20
2018-07-28T12:26:57.471Z,27.20
2018-07-28T12:29:25.683Z,27.20
2018-07-28T12:31:53.871Z,27.20
2018-07-28T12:34:22.115Z,27.10
2018-07-28T12:36:50.337Z,27.10
2018-07-28T12:39:18.552Z,27.00
2018-07-28T12:41:46.757Z,27.00
2018-07-28T12:44:14.970Z,26.90
2018-07-28T12:46:43.223Z,26.80
2018-07-28T12:49:11.449Z,26.70
2018-07-28T12:51:39.679Z,26.60
2018-07-28T12:54:07.894Z,26.70
2018-07-28T12:56:36.091Z,26.60
2018-07-28T12:59:04.315Z,26.50
2018-07-28T13:01:32.535Z,26.40
2018-07-28T13:04:00.797Z,26.30
2018-07-28T13:06:28.969Z,26.20
2018-07-28T13:08:57.187Z,26.10
2018-07-28T13:11:25.394Z,26.00
2018-07-28T13:13:53.619Z,26.00
2018-07-28T13:16:21.843Z,25.90
2018-07-28T13:18:50.067Z,26.00
2018-07-28T13:21:18.293Z,25.80
2018-07-28T13:23:46.512Z,25.80
2018-07-28T13:26:14.721Z,25.80
2018-07-28T13:28:42.921Z,25.80
2018-07-28T13:31:11.143Z,25.80
2018-07-28T13:33:39.338Z,25.70
2018-07-28T13:36:07.559Z,25.70
2018-07-28T13:38:35.757Z,25.60
2018-07-28T13:41:03.974Z,25.60
2018-07-28T13:43:32.175Z,25.40
2018-07-28T13:46:00.382Z,25.50
2018-07-28T13:48:28.575Z,25.40
2018-07-28T13:50:56.794Z,25.40
2018-07-28T13:53:25.112Z,25.40
2018-07-28T13:55:53.319Z,25.40
2018-07-28T13:58:21.564Z,25.40
2018-07-28T14:00:49.884Z,25.40
2018-07-28T14:03:18.144Z,25.40
2018-07-28T14:05:46.373Z,25.40
2018-07-28T14:08:16.114Z,25.40
2018-07-28T14:10:44.319Z,25.40
2018-07-28T14:13:12.552Z,25.50
2018-07-28T14:15:40.818Z,25.50
2018-07-28T14:18:09.050Z,25.50
2018-07-28T14:20:37.308Z,25.50
2018-07-28T14:23:05.522Z,25.40
2018-07-28T14:25:33.738Z,25.50
2018-07-28T14:28:01.942Z,25.50
2018-07-28T14:30:30.145Z,25.50
2018-07-28T14:32:58.375Z,25.40
2018-07-28T14:35:26.581Z,25.30
2018-07-28T14:37:54.811Z,25.20
2018-07-28T14:40:23.027Z,25.20
2018-07-28T14:42:51.224Z,25.10
2018-07-28T14:45:19.437Z,25.10
2018-07-28T14:47:47.645Z,25.10
2018-07-28T14:50:15.849Z,25.00
2018-07-28T14:52:44.063Z,24.90
2018-07-28T14:55:12.316Z,25.00
2018-07-28T14:57:40.496Z,24.90
2018-07-28T15:00:08.746Z,24.90
2018-07-28T15:02:36.983Z,25.00
2018-07-28T15:05:05.334Z,25.10
2018-07-28T15:07:33.526Z,25.10
2018-07-28T15:10:01.743Z,25.10
2018-07-28T15:12:29.981Z,25.10
2018-07-28T15:14:58.191Z,25.00
2018-07-28T15:17:26.419Z,25.10
2018-07-28T15:19:54.632Z,25.10
2018-07-28T15:22:22.844Z,25.10
2018-07-28T15:24:51.054Z,25.10
2018-07-28T15:27:19.262Z,25.10
2018-07-28T15:29:47.461Z,25.10
2018-07-28T15:32:15.667Z,25.20
2018-07-28T15:34:43.874Z,25.20
2018-07-28T15:37:12.078Z,25.40
2018-07-28T15:39:40.282Z,25.40
2018-07-28T15:42:08.490Z,25.50
2018-07-28T15:44:36.701Z,25.50
2018-07-28T15:47:05.029Z,25.50
2018-07-28T15:49:33.265Z,25.40
2018-07-28T15:52:07.983Z,25.50
2018-07-28T15:54:36.178Z,25.60
2018-07-28T15:57:04.464Z,25.60
2018-07-28T15:59:32.672Z,25.60
2018-07-28T16:02:00.920Z,25.70
2018-07-28T16:04:29.127Z,25.80
2018-07-28T16:06:57.334Z,25.80
2018-07-28T16:09:25.534Z,25.80
2018-07-28T16:11:53.816Z,25.80
2018-07-28T16:14:22.103Z,25.80
2018-07-28T16:16:50.338Z,25.80
2018-07-28T16:19:18.548Z,25.70
2018-07-28T16:21:46.760Z,25.60
2018-07-28T16:24:14.961Z,25.50
2018-07-28T16:26:43.171Z,25.50
2018-07-28T16:29:11.382Z,25.50
2018-07-28T16:31:39.596Z,25.40
2018-07-28T16:34:07.928Z,25.40
2018-07-28T16:36:36.143Z,25.40
2018-07-28T16:39:06.939Z,25.40
2018-07-28T16:41:35.129Z,25.40
2018-07-28T16:44:03.346Z,25.50
2018-07-28T16:46:31.575Z,25.60
2018-07-28T16:48:59.822Z,25.70
2018-07-28T16:51:28.028Z,25.80
2018-07-28T16:53:56.243Z,25.80
2018-07-28T16:56:24.434Z,25.80
2018-07-28T16:58:52.761Z,25.90
2018-07-28T17:01:20.969Z,25.80
2018-07-28T17:03:49.203Z,25.80
2018-07-28T17:06:17.394Z,25.70
2018-07-28T17:08:45.594Z,25.70
2018-07-28T17:11:13.789Z,25.70
2018-07-28T17:13:42.027Z,25.70
2018-07-28T17:16:10.201Z,25.60
2018-07-28T17:18:38.419Z,25.60
2018-07-28T17:21:07.127Z,25.70
2018-07-28T17:23:35.355Z,25.70
2018-07-28T17:26:03.646Z,25.60
2018-07-28T17:28:31.861Z,25.50
2018-07-28T17:31:00.162Z,25.50
2018-07-28T17:33:28.768Z,25.60
2018-07-28T17:35:56.980Z,25.50
2018-07-28T17:38:25.191Z,25.60
2018-07-28T17:40:53.475Z,25.50
2018-07-28T17:43:21.614Z,25.50
2018-07-28T17:45:49.822Z,25.40
2018-07-28T17:48:18.023Z,25.40
2018-07-28T17:50:46.229Z,25.30
2018-07-28T17:53:14.425Z,25.30
2018-07-28T17:55:42.639Z,25.30
2018-07-28T17:58:10.875Z,25.20
2018-07-28T18:00:39.054Z,25.20
2018-07-28T18:03:07.262Z,25.20
2018-07-28T18:05:35.474Z,25.20
2018-07-28T18:08:03.687Z,25.10
2018-07-28T18:10:31.912Z,25.10
2018-07-28T18:13:00.189Z,25.10
2018-07-28T18:15:28.425Z,25.00
2018-07-28T18:17:56.632Z,25.00
2018-07-28T18:20:24.912Z,25.00
2018-07-28T18:22:53.199Z,25.00
2018-07-28T18:25:21.398Z,24.90
2018-07-28T18:27:49.596Z,25.00
2018-07-28T18:30:17.838Z,24.90
2018-07-28T18:32:46.093Z,24.90
2018-07-28T18:35:14.336Z,24.90
2018-07-28T18:37:42.580Z,24.90
2018-07-28T18:40:10.868Z,24.90
2018-07-28T18:42:39.114Z,24.90
2018-07-28T18:45:07.328Z,24.80
2018-07-28T18:47:35.563Z,24.80
2018-07-28T18:50:03.808Z,24.80
2018-07-28T18:52:32.002Z,24.70
2018-07-28T18:55:00.275Z,24.60
2018-07-28T18:57:28.472Z,24.60
2018-07-28T18:59:56.673Z,24.70
2018-07-28T19:02:24.924Z,24.60
2018-07-28T19:04:53.265Z,24.50
2018-07-28T19:07:21.370Z,24.50
2018-07-28T19:09:52.393Z,24.40
2018-07-28T19:12:25.960Z,24.40
2018-07-28T19:14:54.158Z,24.40
2018-07-28T19:17:22.398Z,24.40
2018-07-28T19:19:50.603Z,24.30
2018-07-28T19:22:23.994Z,24.30
2018-07-28T19:24:52.452Z,24.20
2018-07-28T19:27:20.655Z,24.20
2018-07-28T19:29:48.879Z,24.20
2018-07-28T19:32:17.090Z,24.10
2018-07-28T19:34:45.303Z,24.00
2018-07-28T19:37:19.282Z,24.00
2018-07-28T19:39:47.486Z,23.90
2018-07-28T19:42:20.968Z,23.80
2018-07-28T19:44:49.227Z,23.80
2018-07-28T19:47:17.437Z,23.70
2018-07-28T19:49:45.637Z,23.60
2018-07-28T19:52:13.948Z,23.60
2018-07-28T19:54:42.139Z,23.50
2018-07-28T19:57:10.358Z,23.50
2018-07-28T19:59:38.577Z,23.50
2018-07-28T20:02:06.961Z,23.30
2018-07-28T20:04:35.171Z,23.20
2018-07-28T20:07:03.376Z,23.20
2018-07-28T20:09:31.597Z,23.10
2018-07-28T20:11:59.811Z,23.00
2018-07-28T20:14:28.007Z,22.90
2018-07-28T20:16:56.242Z,22.80
2018-07-28T20:19:24.509Z,22.80
2018-07-28T20:21:52.711Z,22.70
2018-07-28T20:24:20.938Z,22.70
2018-07-28T20:26:49.166Z,22.70
2018-07-28T20:29:17.367Z,22.60
2018-07-28T20:31:45.688Z,22.60
2018-07-28T20:34:13.892Z,22.70
2018-07-28T20:36:42.119Z,22.60
2018-07-28T20:39:11.407Z,22.60
2018-07-28T20:41:39.659Z,22.50
2018-07-28T20:44:07.897Z,22.50
2018-07-28T20:46:36.119Z,22.50
2018-07-28T20:49:04.383Z,22.50
2018-07-28T20:51:32.571Z,22.60
2018-07-28T20:54:00.814Z,22.60
2018-07-28T20:56:29.018Z,22.70
2018-07-28T20:58:57.275Z,22.70
2018-07-28T21:01:25.548Z,22.70
2018-07-28T21:03:53.998Z,22.70
2018-07-28T21:06:22.198Z,22.70
2018-07-28T21:08:50.402Z,22.70
2018-07-28T21:11:18.647Z,22.70
2018-07-28T21:13:46.864Z,22.70
2018-07-28T21:16:15.226Z,22.70
2018-07-28T21:18:43.483Z,22.70
2018-07-28T21:21:11.716Z,22.70
2018-07-28T21:23:39.923Z,22.70
2018-07-28T21:26:08.198Z,22.70
2018-07-28T21:28:36.413Z,22.70
2018-07-28T21:31:04.636Z,22.70
2018-07-28T21:33:32.892Z,22.70
2018-07-28T21:36:01.114Z,22.70
2018-07-28T21:38:29.366Z,22.70
2018-07-28T21:40:58.402Z,22.70
2018-07-28T21:43:26.643Z,22.70
2018-07-28T21:45:54.837Z,22.60
2018-07-28T21:48:23.054Z,22.50
2018-07-28T21:50:51.251Z,22.50
2018-07-28T21:53:19.473Z,22.40
2018-07-28T21:55:47.686Z,22.30
2018-07-28T21:58:15.904Z,22.20
2018-07-28T22:00:50.675Z,22.10
2018-07-28T22:03:18.901Z,22.10
2018-07-28T22:05:47.095Z,22.00
2018-07-28T22:08:15.315Z,22.00
2018-07-28T22:10:43.522Z,21.90
2018-07-28T22:13:11.730Z,21.90
2018-07-28T22:15:40.004Z,21.80
2018-07-28T22:18:08.224Z,21.80
2018-07-28T22:20:36.441Z,21.80
2018-07-28T22:23:04.662Z,21.70
2018-07-28T22:25:32.878Z,21.70
2018-07-28T22:28:01.090Z,21.60
2018-07-28T22:30:29.304Z,21.70
2018-07-28T22:32:57.499Z,21.60
2018-07-28T22:35:25.710Z,21.70
2018-07-28T22:37:53.905Z,21.60
2018-07-28T22:40:22.110Z,21.50
2018-07-28T22:42:51.154Z,21.40
2018-07-28T22:45:20.227Z,21.30
2018-07-28T22:47:48.502Z,21.30
2018-07-28T22:50:17.385Z,21.30
2018-07-28T22:52:45.759Z,21.20
2018-07-28T22:55:13.957Z,21.10
2018-07-28T22:57:42.153Z,21.10
2018-07-28T23:00:10.358Z,21.00
2018-07-28T23:02:38.566Z,20.90
2018-07-28T23:05:07.374Z,20.80
2018-07-28T23:07:35.714Z,20.80
2018-07-28T23:10:04.035Z,20.70
2018-07-28T23:12:32.237Z,20.70
2018-07-28T23:15:00.462Z,20.70
2018-07-28T23:17:28.659Z,20.60
2018-07-28T23:19:56.858Z,20.60
2018-07-28T23:22:25.054Z,20.50
2018-07-28T23:24:53.253Z,20.50
2018-07-28T23:27:21.447Z,20.40
2018-07-28T23:29:49.642Z,20.40
2018-07-28T23:32:17.842Z,20.40
2018-07-28T23:34:46.031Z,20.40
2018-07-28T23:37:14.248Z,20.40
2018-07-28T23:39:42.446Z,20.30
2018-07-28T23:42:10.655Z,20.40
2018-07-28T23:44:38.850Z,20.30
2018-07-28T23:47:07.073Z,20.40
2018-07-28T23:49:35.275Z,20.50
2018-07-28T23:52:03.475Z,20.50
2018-07-28T23:54:31.712Z,20.40
2018-07-28T23:56:59.879Z,20.40
2018-07-28T23:59:28.141Z,20.40
